createdAt,value
2019-04-25T00:00:51.329Z,49.90
2019-04-25T00:01:54.204Z,49.80
2019-04-25T00:02:56.974Z,49.90
2019-04-25T00:03:59.671Z,49.90
2019-04-25T00:05:03.245Z,49.80
2019-04-25T00:06:06.177Z,49.70
2019-04-25T00:07:09.224Z,49.80
2019-04-25T00:08:11.967Z,49.80
2019-04-25T00:09:14.692Z,49.80
2019-04-25T00:10:17.412Z,49.70
2019-04-25T00:11:21.514Z,49.90
2019-04-25T00:12:24.347Z,49.80
2019-04-25T00:13:27.664Z,49.80
2019-04-25T00:14:31.463Z,49.90
2019-04-25T00:15:35.678Z,49.90
2019-04-25T00:16:38.711Z,49.90
2019-04-25T00:17:43.364Z,49.90
2019-04-25T00:18:47.184Z,50.00
2019-04-25T00:19:51.077Z,49.90
2019-04-25T00:20:54.335Z,50.00
2019-04-25T00:21:57.055Z,50.00
2019-04-25T00:22:59.819Z,49.90
2019-04-25T00:24:02.753Z,49.90
2019-04-25T00:25:15.187Z,49.80
2019-04-25T00:26:11.307Z,50.00
2019-04-25T00:27:14.183Z,50.00
2019-04-25T00:28:16.938Z,50.00
2019-04-25T00:29:22.022Z,50.00
2019-04-25T00:30:24.926Z,49.90
2019-04-25T00:31:27.639Z,50.00
2019-04-25T00:32:31.583Z,50.00
2019-04-25T00:33:34.409Z,49.90
2019-04-25T00:34:37.124Z,50.80
2019-04-25T00:35:42.298Z,49.90
2019-04-25T00:36:45.580Z,50.00
2019-04-25T00:37:48.419Z,50.00
2019-04-25T00:38:52.324Z,50.00
2019-04-25T00:39:55.630Z,50.00
2019-04-25T00:40:58.343Z,50.20
2019-04-25T00:42:02.315Z,50.00
2019-04-25T00:43:05.283Z,50.50
2019-04-25T00:44:08.044Z,50.00
2019-04-25T00:45:11.872Z,50.00
2019-04-25T00:46:15.092Z,50.00
2019-04-25T00:47:18.099Z,50.00
2019-04-25T00:48:22.210Z,50.00
2019-04-25T00:49:25.380Z,50.00
2019-04-25T00:50:28.120Z,50.20
2019-04-25T00:51:31.809Z,50.00
2019-04-25T00:52:34.660Z,50.10
2019-04-25T00:53:37.403Z,50.00
2019-04-25T00:54:41.420Z,50.00
2019-04-25T00:55:44.464Z,50.00
2019-04-25T00:56:48.265Z,50.20
2019-04-25T00:57:52.555Z,50.10
2019-04-25T00:58:55.615Z,50.70
2019-04-25T00:59:58.324Z,50.10
2019-04-25T01:01:02.054Z,50.30
2019-04-25T01:02:07.489Z,50.20
2019-04-25T01:03:09.503Z,50.20
2019-04-25T01:04:12.404Z,50.30
2019-04-25T01:05:15.117Z,50.10
2019-04-25T01:06:17.835Z,50.10
2019-04-25T01:07:22.245Z,50.20
2019-04-25T01:08:24.895Z,50.10
2019-04-25T01:09:27.644Z,50.30
2019-04-25T01:10:31.574Z,50.20
2019-04-25T01:11:34.485Z,50.30
2019-04-25T01:12:37.198Z,50.30
2019-04-25T01:13:39.919Z,50.20
2019-04-25T01:14:42.675Z,50.20
2019-04-25T01:15:46.358Z,50.30
2019-04-25T01:16:49.127Z,50.20
2019-04-25T01:17:52.611Z,50.30
2019-04-25T01:18:56.244Z,50.30
2019-04-25T01:19:58.989Z,50.20
2019-04-25T01:21:01.683Z,50.30
2019-04-25T01:22:04.404Z,50.20
2019-04-25T01:23:07.116Z,51.70
2019-04-25T01:24:09.908Z,50.20
2019-04-25T01:25:13.836Z,50.30
2019-04-25T01:26:17.167Z,50.30
2019-04-25T01:27:19.886Z,50.30
2019-04-25T01:28:24.179Z,50.30
2019-04-25T01:29:27.155Z,50.30
2019-04-25T01:30:29.903Z,50.20
2019-04-25T01:31:33.589Z,50.30
2019-04-25T01:32:36.443Z,50.20
2019-04-25T01:33:39.504Z,50.30
2019-04-25T01:34:44.143Z,50.20
2019-04-25T01:35:47.334Z,50.20
2019-04-25T01:36:50.755Z,50.30
2019-04-25T01:37:54.857Z,50.30
2019-04-25T01:38:58.826Z,50.30
2019-04-25T01:40:01.943Z,50.30
2019-04-25T01:41:04.659Z,50.30
2019-04-25T01:42:07.720Z,50.40
2019-04-25T01:43:10.437Z,50.30
2019-04-25T01:44:14.336Z,50.30
2019-04-25T01:45:17.791Z,50.30
2019-04-25T01:46:20.643Z,50.30
2019-04-25T01:47:23.984Z,50.30
2019-04-25T01:48:26.798Z,50.50
2019-04-25T01:49:29.487Z,50.40
2019-04-25T01:50:33.212Z,50.40
2019-04-25T01:51:36.583Z,50.30
2019-04-25T01:52:39.304Z,50.50
2019-04-25T01:53:42.022Z,50.40
2019-04-25T01:54:44.778Z,50.50
2019-04-25T01:55:55.941Z,50.40
2019-04-25T01:56:51.951Z,50.40
2019-04-25T01:57:55.181Z,50.40
2019-04-25T01:58:59.444Z,50.50
2019-04-25T02:00:04.005Z,50.40
2019-04-25T02:01:06.803Z,50.50
2019-04-25T02:02:09.656Z,50.50
2019-04-25T02:03:13.500Z,50.50
2019-04-25T02:04:16.319Z,50.60
2019-04-25T02:05:19.074Z,50.50
2019-04-25T02:06:23.184Z,51.20
2019-04-25T02:07:26.431Z,50.50
2019-04-25T02:08:29.148Z,50.60
2019-04-25T02:09:33.666Z,50.50
2019-04-25T02:10:36.589Z,51.70
2019-04-25T02:11:39.303Z,50.60
2019-04-25T02:12:43.555Z,50.50
2019-04-25T02:13:46.425Z,52.00
2019-04-25T02:14:50.252Z,50.60
2019-04-25T02:15:54.763Z,50.50
2019-04-25T02:16:58.363Z,50.50
2019-04-25T02:18:01.818Z,50.60
2019-04-25T02:19:04.968Z,50.70
2019-04-25T02:20:07.689Z,50.60
2019-04-25T02:21:10.451Z,50.80
2019-04-25T02:22:14.576Z,50.60
2019-04-25T02:23:17.397Z,50.60
2019-04-25T02:24:20.111Z,50.70
2019-04-25T02:25:23.011Z,50.60
2019-04-25T02:26:27.615Z,50.70
2019-04-25T02:27:30.332Z,50.80
2019-04-25T02:28:33.794Z,50.70
2019-04-25T02:29:37.056Z,50.60
2019-04-25T02:30:39.807Z,50.60
2019-04-25T02:31:44.798Z,50.70
2019-04-25T02:32:47.437Z,50.80
2019-04-25T02:33:51.152Z,50.80
2019-04-25T02:34:58.180Z,50.90
2019-04-25T02:36:00.986Z,50.80
2019-04-25T02:37:05.622Z,50.70
2019-04-25T02:38:08.883Z,50.60
2019-04-25T02:39:15.250Z,50.70
2019-04-25T02:40:18.540Z,50.90
2019-04-25T02:41:21.641Z,50.70
2019-04-25T02:42:24.793Z,50.90
2019-04-25T02:43:27.603Z,50.80
2019-04-25T02:44:30.380Z,51.00
2019-04-25T02:45:34.390Z,50.80
2019-04-25T02:46:37.439Z,50.80
2019-04-25T02:47:41.209Z,50.90
2019-04-25T02:48:44.228Z,50.80
2019-04-25T02:49:47.056Z,50.90
2019-04-25T02:50:49.801Z,50.90
2019-04-25T02:51:55.036Z,51.00
2019-04-25T02:52:58.303Z,50.80
2019-04-25T02:54:02.689Z,51.00
2019-04-25T02:55:10.521Z,50.80
2019-04-25T02:56:27.447Z,50.90
2019-04-25T02:57:15.680Z,51.00
2019-04-25T02:58:18.418Z,51.00
2019-04-25T02:59:21.461Z,51.00
2019-04-25T03:00:25.003Z,51.00
2019-04-25T03:01:29.028Z,51.00
2019-04-25T03:02:31.725Z,51.00
2019-04-25T03:03:34.802Z,51.10
2019-04-25T03:04:37.679Z,51.00
2019-04-25T03:05:40.438Z,51.00
2019-04-25T03:06:45.285Z,51.00
2019-04-25T03:07:47.517Z,52.40
2019-04-25T03:08:50.502Z,51.00
2019-04-25T03:09:54.778Z,51.20
2019-04-25T03:10:58.696Z,51.00
2019-04-25T03:12:02.016Z,51.00
2019-04-25T03:13:10.280Z,51.00
2019-04-25T03:14:10.412Z,51.20
2019-04-25T03:15:14.450Z,51.10
2019-04-25T03:16:17.465Z,51.20
2019-04-25T03:17:20.180Z,51.10
2019-04-25T03:18:24.797Z,51.20
2019-04-25T03:19:27.245Z,51.30
2019-04-25T03:20:29.958Z,51.30
2019-04-25T03:21:34.992Z,51.10
2019-04-25T03:22:37.401Z,51.30
2019-04-25T03:23:42.391Z,51.20
2019-04-25T03:24:45.843Z,51.20
2019-04-25T03:25:48.917Z,51.10
2019-04-25T03:26:53.129Z,51.30
2019-04-25T03:27:55.989Z,51.30
2019-04-25T03:28:58.842Z,51.20
2019-04-25T03:30:04.409Z,51.30
2019-04-25T03:31:15.251Z,51.30
2019-04-25T03:32:16.359Z,51.30
2019-04-25T03:33:19.559Z,52.40
2019-04-25T03:34:21.229Z,51.50
2019-04-25T03:35:23.944Z,51.40
2019-04-25T03:36:27.259Z,51.30
2019-04-25T03:37:30.016Z,51.40
2019-04-25T03:38:34.162Z,51.40
2019-04-25T03:39:36.956Z,51.40
2019-04-25T03:40:39.674Z,51.40
2019-04-25T03:41:43.883Z,51.50
2019-04-25T03:42:46.760Z,51.40
2019-04-25T03:43:49.479Z,51.40
2019-04-25T03:44:53.700Z,51.40
2019-04-25T03:45:56.623Z,51.50
2019-04-25T03:46:59.376Z,51.40
2019-04-25T03:48:04.982Z,51.40
2019-04-25T03:49:07.674Z,51.40
2019-04-25T03:50:10.483Z,51.60
2019-04-25T03:51:15.330Z,51.50
2019-04-25T03:52:17.576Z,52.70
2019-04-25T03:53:20.415Z,51.40
2019-04-25T03:54:23.527Z,51.60
2019-04-25T03:55:26.356Z,51.40
2019-04-25T03:56:29.076Z,51.60
2019-04-25T03:57:33.142Z,51.50
2019-04-25T03:58:37.988Z,51.50
2019-04-25T03:59:41.458Z,51.40
2019-04-25T04:00:44.677Z,51.50
2019-04-25T04:01:47.575Z,52.70
2019-04-25T04:02:50.934Z,50.50
2019-04-25T04:03:53.808Z,51.50
2019-04-25T04:04:56.659Z,51.50
2019-04-25T04:05:59.375Z,51.50
2019-04-25T04:07:04.436Z,51.60
2019-04-25T04:08:07.593Z,51.50
2019-04-25T04:09:10.672Z,51.40
2019-04-25T04:10:15.098Z,51.10
2019-04-25T04:11:17.725Z,51.50
2019-04-25T04:12:20.488Z,51.40
2019-04-25T04:13:24.334Z,51.40
2019-04-25T04:14:27.215Z,51.60
2019-04-25T04:15:30.103Z,51.40
2019-04-25T04:16:34.293Z,51.40
2019-04-25T04:17:37.179Z,51.40
2019-04-25T04:18:39.904Z,51.60
2019-04-25T04:19:43.571Z,51.50
2019-04-25T04:20:46.960Z,51.40
2019-04-25T04:21:49.668Z,51.40
2019-04-25T04:22:53.295Z,51.60
2019-04-25T04:23:57.255Z,51.50
2019-04-25T04:25:00.128Z,51.50
2019-04-25T04:26:03.305Z,51.40
2019-04-25T04:27:07.912Z,51.30
2019-04-25T04:28:10.435Z,51.40
2019-04-25T04:29:14.133Z,51.50
2019-04-25T04:30:17.491Z,51.40
2019-04-25T04:31:20.208Z,51.50
2019-04-25T04:32:24.216Z,51.50
2019-04-25T04:33:32.265Z,51.50
2019-04-25T04:34:31.415Z,51.40
2019-04-25T04:35:34.135Z,50.80
2019-04-25T04:36:36.853Z,51.40
2019-04-25T04:37:39.575Z,51.40
2019-04-25T04:38:44.064Z,51.50
2019-04-25T04:39:47.028Z,51.40
2019-04-25T04:40:49.736Z,51.40
2019-04-25T04:41:53.558Z,51.40
2019-04-25T04:42:57.356Z,51.50
2019-04-25T04:44:00.108Z,51.40
2019-04-25T04:45:04.055Z,51.50
2019-04-25T04:46:06.773Z,51.10
2019-04-25T04:47:10.000Z,51.50
2019-04-25T04:48:14.500Z,51.60
2019-04-25T04:49:17.349Z,51.40
2019-04-25T04:50:20.068Z,51.50
2019-04-25T04:51:23.414Z,51.60
2019-04-25T04:52:26.213Z,51.50
2019-04-25T04:53:28.965Z,51.40
2019-04-25T04:54:31.688Z,51.40
2019-04-25T04:55:34.674Z,51.40
2019-04-25T04:56:37.392Z,51.40
2019-04-25T04:57:40.114Z,51.40
2019-04-25T04:58:43.181Z,51.50
2019-04-25T04:59:45.992Z,51.40
2019-04-25T05:00:48.718Z,51.40
2019-04-25T05:01:53.270Z,51.60
2019-04-25T05:02:56.084Z,51.40
2019-04-25T05:03:58.840Z,51.60
2019-04-25T05:05:01.563Z,51.60
2019-04-25T05:06:04.283Z,51.50
2019-04-25T05:07:06.999Z,51.40
2019-04-25T05:08:10.928Z,51.30
2019-04-25T05:09:15.536Z,51.20
2019-04-25T05:10:19.780Z,51.30
2019-04-25T05:11:23.896Z,51.10
2019-04-25T05:12:27.164Z,51.00
2019-04-25T05:13:29.880Z,51.00
2019-04-25T05:14:33.675Z,51.00
2019-04-25T05:15:36.560Z,51.00
2019-04-25T05:16:39.291Z,50.90
2019-04-25T05:17:41.996Z,50.70
2019-04-25T05:18:44.711Z,50.60
2019-04-25T05:19:47.463Z,50.70
2019-04-25T05:20:50.299Z,50.60
2019-04-25T05:21:54.846Z,50.60
2019-04-25T05:22:57.868Z,50.50
2019-04-25T05:24:01.261Z,50.40
2019-04-25T05:25:05.549Z,50.30
2019-04-25T05:26:09.831Z,50.30
2019-04-25T05:27:14.991Z,50.30
2019-04-25T05:28:18.200Z,50.20
2019-04-25T05:29:23.255Z,50.10
2019-04-25T05:30:26.523Z,50.30
2019-04-25T05:31:29.455Z,50.10
2019-04-25T05:32:32.345Z,51.30
2019-04-25T05:33:35.433Z,49.90
2019-04-25T05:34:38.163Z,51.00
2019-04-25T05:35:41.277Z,46.40
2019-04-25T05:36:44.000Z,42.60
2019-04-25T05:37:46.723Z,41.90
2019-04-25T05:38:49.441Z,41.60
2019-04-25T05:39:53.542Z,42.00
2019-04-25T05:40:56.324Z,41.80
2019-04-25T05:41:59.044Z,41.80
2019-04-25T05:43:03.712Z,42.00
2019-04-25T05:44:06.109Z,42.10
2019-04-25T05:45:08.864Z,42.40
2019-04-25T05:46:13.179Z,42.50
2019-04-25T05:47:17.456Z,42.70
2019-04-25T05:48:21.221Z,43.20
2019-04-25T05:49:25.169Z,43.60
2019-04-25T05:50:28.625Z,43.60
2019-04-25T05:51:33.787Z,43.40
2019-04-25T05:52:36.696Z,43.50
2019-04-25T05:53:39.417Z,44.10
2019-04-25T05:54:44.277Z,44.20
2019-04-25T05:55:46.783Z,44.20
2019-04-25T05:56:49.503Z,45.70
2019-04-25T05:57:53.599Z,47.10
2019-04-25T05:58:56.443Z,47.10
2019-04-25T05:59:59.208Z,46.50
2019-04-25T06:01:03.297Z,46.70
2019-04-25T06:02:06.157Z,46.50
2019-04-25T06:03:08.876Z,46.20
2019-04-25T06:04:11.593Z,45.90
2019-04-25T06:05:14.343Z,46.00
2019-04-25T06:06:17.580Z,44.90
2019-04-25T06:07:20.390Z,45.10
2019-04-25T06:08:25.454Z,45.10
2019-04-25T06:09:28.127Z,44.50
2019-04-25T06:10:30.887Z,44.60
2019-04-25T06:11:33.698Z,44.70
2019-04-25T06:12:36.579Z,44.50
2019-04-25T06:13:39.257Z,44.30
2019-04-25T06:14:43.405Z,44.10
2019-04-25T06:15:46.656Z,44.10
2019-04-25T06:16:49.372Z,43.40
2019-04-25T06:17:53.378Z,43.40
2019-04-25T06:18:56.440Z,43.30
2019-04-25T06:19:59.152Z,43.10
2019-04-25T06:21:03.112Z,43.10
2019-04-25T06:22:06.494Z,43.10
2019-04-25T06:23:09.268Z,43.10
2019-04-25T06:24:13.308Z,43.10
2019-04-25T06:25:16.538Z,42.90
2019-04-25T06:26:29.958Z,42.80
2019-04-25T06:27:24.377Z,42.30
2019-04-25T06:28:28.348Z,42.10
2019-04-25T06:29:31.060Z,42.30
2019-04-25T06:30:35.209Z,42.00
2019-04-25T06:31:38.067Z,41.80
2019-04-25T06:32:40.788Z,41.70
2019-04-25T06:33:43.837Z,41.30
2019-04-25T06:34:47.188Z,41.40
2019-04-25T06:35:49.939Z,41.10
2019-04-25T06:36:53.648Z,41.00
2019-04-25T06:37:56.420Z,41.10
2019-04-25T06:38:59.124Z,41.30
2019-04-25T06:40:03.449Z,41.10
2019-04-25T06:41:06.403Z,41.00
2019-04-25T06:42:10.158Z,41.00
2019-04-25T06:43:13.427Z,40.90
2019-04-25T06:44:16.392Z,41.20
2019-04-25T06:45:19.155Z,41.00
2019-04-25T06:46:22.975Z,42.10
2019-04-25T06:47:26.697Z,42.30
2019-04-25T06:48:30.363Z,40.70
2019-04-25T06:49:36.418Z,40.80
2019-04-25T06:50:37.484Z,41.00
2019-04-25T06:51:40.199Z,40.90
2019-04-25T06:52:43.893Z,40.80
2019-04-25T06:53:46.752Z,40.80
2019-04-25T06:54:49.472Z,40.50
2019-04-25T06:55:53.530Z,40.70
2019-04-25T06:56:56.350Z,40.50
2019-04-25T06:58:09.104Z,40.30
2019-04-25T06:59:03.638Z,39.90
2019-04-25T07:00:07.296Z,40.30
2019-04-25T07:01:10.043Z,40.30
2019-04-25T07:02:14.010Z,40.50
2019-04-25T07:03:16.878Z,40.00
2019-04-25T07:04:19.600Z,40.10
2019-04-25T07:05:30.773Z,39.80
2019-04-25T07:06:27.231Z,40.20
2019-04-25T07:07:29.980Z,40.00
2019-04-25T07:08:33.330Z,39.80
2019-04-25T07:09:37.707Z,39.90
2019-04-25T07:10:40.420Z,39.60
2019-04-25T07:11:43.968Z,40.40
2019-04-25T07:12:46.992Z,39.40
2019-04-25T07:13:49.715Z,39.10
2019-04-25T07:14:53.940Z,39.30
2019-04-25T07:15:56.768Z,38.80
2019-04-25T07:17:00.460Z,38.90
2019-04-25T07:18:03.782Z,38.00
2019-04-25T07:19:06.692Z,38.10
2019-04-25T07:20:13.706Z,38.10
2019-04-25T07:21:16.648Z,38.20
2019-04-25T07:22:19.375Z,37.80
2019-04-25T07:23:23.538Z,38.80
2019-04-25T07:24:27.248Z,37.20
2019-04-25T07:25:30.476Z,36.80
2019-04-25T07:26:37.101Z,36.60
2019-04-25T07:27:37.571Z,36.40
2019-04-25T07:28:40.284Z,36.00
2019-04-25T07:29:43.385Z,35.50
2019-04-25T07:30:51.933Z,35.40
2019-04-25T07:31:51.631Z,35.20
2019-04-25T07:32:54.343Z,35.00
2019-04-25T07:33:57.436Z,34.20
2019-04-25T07:35:00.148Z,34.70
2019-04-25T07:36:04.224Z,34.30
2019-04-25T07:37:07.116Z,33.90
2019-04-25T07:38:09.832Z,33.70
2019-04-25T07:39:13.443Z,33.40
2019-04-25T07:40:16.517Z,33.60
2019-04-25T07:41:19.235Z,33.40
2019-04-25T07:42:21.996Z,33.10
2019-04-25T07:43:25.820Z,33.70
2019-04-25T07:44:44.263Z,33.10
2019-04-25T07:45:34.567Z,32.90
2019-04-25T07:46:40.015Z,32.60
2019-04-25T07:47:43.918Z,32.40
2019-04-25T07:48:46.515Z,32.20
2019-04-25T07:49:49.558Z,32.20
2019-04-25T07:50:53.635Z,32.30
2019-04-25T07:51:56.399Z,31.40
2019-04-25T07:52:59.148Z,31.70
2019-04-25T07:54:02.213Z,31.30
2019-04-25T07:55:05.095Z,31.00
2019-04-25T07:56:07.813Z,31.00
2019-04-25T07:57:10.563Z,30.70
2019-04-25T07:58:14.340Z,31.90
2019-04-25T07:59:18.183Z,31.00
2019-04-25T08:00:20.828Z,30.50
2019-04-25T08:01:23.664Z,30.80
2019-04-25T08:02:27.944Z,31.10
2019-04-25T08:03:30.810Z,30.60
2019-04-25T08:04:35.758Z,31.40
2019-04-25T08:05:38.529Z,30.60
2019-04-25T08:06:41.248Z,31.50
2019-04-25T08:07:44.078Z,31.20
2019-04-25T08:08:46.789Z,31.90
2019-04-25T08:09:49.504Z,31.60
2019-04-25T08:10:55.479Z,31.80
2019-04-25T08:11:58.199Z,31.40
2019-04-25T08:13:00.958Z,31.50
2019-04-25T08:14:04.049Z,31.90
2019-04-25T08:15:07.135Z,31.80
2019-04-25T08:16:09.851Z,32.00
2019-04-25T08:17:14.393Z,32.00
2019-04-25T08:18:16.991Z,31.80
2019-04-25T08:19:19.736Z,31.90
2019-04-25T08:20:23.664Z,32.00
2019-04-25T08:21:26.455Z,32.10
2019-04-25T08:22:30.026Z,32.20
2019-04-25T08:23:36.674Z,32.20
2019-04-25T08:24:37.322Z,32.80
2019-04-25T08:25:40.680Z,32.90
2019-04-25T08:26:43.720Z,32.40
2019-04-25T08:27:46.617Z,32.40
2019-04-25T08:28:55.181Z,32.30
2019-04-25T08:29:54.250Z,32.40
2019-04-25T08:30:57.087Z,32.60
2019-04-25T08:31:59.821Z,32.20
2019-04-25T08:33:03.983Z,32.50
2019-04-25T08:34:06.913Z,32.30
2019-04-25T08:35:11.472Z,33.70
2019-04-25T08:36:14.187Z,32.50
2019-04-25T08:37:19.077Z,32.50
2019-04-25T08:38:21.280Z,32.20
2019-04-25T08:39:24.171Z,32.40
2019-04-25T08:40:27.025Z,32.60
2019-04-25T08:41:30.067Z,32.40
2019-04-25T08:42:35.415Z,32.50
2019-04-25T08:43:40.115Z,32.30
2019-04-25T08:44:43.757Z,32.70
2019-04-25T08:45:46.719Z,32.60
2019-04-25T08:46:49.448Z,32.80
2019-04-25T08:47:53.683Z,32.10
2019-04-25T08:48:56.619Z,32.50
2019-04-25T08:49:59.340Z,32.40
2019-04-25T08:51:03.551Z,32.50
2019-04-25T08:52:06.486Z,33.50
2019-04-25T08:53:09.243Z,32.30
2019-04-25T08:54:13.523Z,32.10
2019-04-25T08:55:16.376Z,32.40
2019-04-25T08:56:19.107Z,32.60
2019-04-25T08:57:21.819Z,32.70
2019-04-25T08:58:25.236Z,32.40
2019-04-25T08:59:37.350Z,32.60
2019-04-25T09:00:34.815Z,32.30
2019-04-25T09:01:39.422Z,32.60
2019-04-25T09:02:43.549Z,32.70
2019-04-25T09:03:45.918Z,32.80
2019-04-25T09:04:48.620Z,33.00
2019-04-25T09:05:51.376Z,32.70
2019-04-25T09:06:54.056Z,32.70
2019-04-25T09:07:56.775Z,32.70
2019-04-25T09:08:59.529Z,32.70
2019-04-25T09:10:03.570Z,33.00
2019-04-25T09:11:06.479Z,33.10
2019-04-25T09:12:09.200Z,32.90
2019-04-25T09:13:13.377Z,33.40
2019-04-25T09:14:16.291Z,32.40
2019-04-25T09:15:19.000Z,33.70
2019-04-25T09:16:21.719Z,32.70
2019-04-25T09:17:24.453Z,31.30
2019-04-25T09:18:27.183Z,31.80
2019-04-25T09:19:29.901Z,32.00
2019-04-25T09:20:34.683Z,31.90
2019-04-25T09:21:37.835Z,32.50
2019-04-25T09:22:40.577Z,32.10
2019-04-25T09:23:44.811Z,32.10
2019-04-25T09:24:47.671Z,32.00
2019-04-25T09:25:50.391Z,32.00
2019-04-25T09:26:54.084Z,32.20
2019-04-25T09:27:56.930Z,32.30
2019-04-25T09:28:59.671Z,32.00
2019-04-25T09:30:03.885Z,32.00
2019-04-25T09:31:07.042Z,31.80
2019-04-25T09:32:09.756Z,31.70
2019-04-25T09:33:13.265Z,32.00
2019-04-25T09:34:16.117Z,33.30
2019-04-25T09:35:20.157Z,31.90
2019-04-25T09:36:24.072Z,31.70
2019-04-25T09:37:26.876Z,32.00
2019-04-25T09:38:29.596Z,31.80
2019-04-25T09:39:33.738Z,32.00
2019-04-25T09:40:37.425Z,32.10
2019-04-25T09:41:40.303Z,31.90
2019-04-25T09:42:44.132Z,32.00
2019-04-25T09:43:47.372Z,33.10
2019-04-25T09:44:50.124Z,33.10
2019-04-25T09:45:53.263Z,31.70
2019-04-25T09:46:56.060Z,31.50
2019-04-25T09:47:58.784Z,31.60
2019-04-25T09:49:01.502Z,31.70
2019-04-25T09:50:04.920Z,31.70
2019-04-25T09:51:08.115Z,31.90
2019-04-25T09:52:10.939Z,31.60
2019-04-25T09:53:21.787Z,31.90
2019-04-25T09:54:18.124Z,32.00
2019-04-25T09:55:20.875Z,31.80
2019-04-25T09:56:23.941Z,32.00
2019-04-25T09:57:26.721Z,32.30
2019-04-25T09:58:29.752Z,32.40
2019-04-25T09:59:33.185Z,31.70
2019-04-25T10:00:38.068Z,31.90
2019-04-25T10:01:40.960Z,31.50
2019-04-25T10:02:44.578Z,31.20
2019-04-25T10:03:47.453Z,32.10
2019-04-25T10:04:50.480Z,32.10
2019-04-25T10:05:53.195Z,32.10
2019-04-25T10:06:55.920Z,31.80
2019-04-25T10:07:59.001Z,31.40
2019-04-25T10:09:01.719Z,32.00
2019-04-25T10:10:04.641Z,31.80
2019-04-25T10:11:07.360Z,32.40
2019-04-25T10:12:10.080Z,32.00
2019-04-25T10:13:12.919Z,32.30
2019-04-25T10:14:21.555Z,31.90
2019-04-25T10:15:44.428Z,31.60
2019-04-25T10:16:47.313Z,31.70
2019-04-25T10:17:51.054Z,32.00
2019-04-25T10:18:54.064Z,31.90
2019-04-25T10:19:56.784Z,31.90
2019-04-25T10:20:59.604Z,31.90
2019-04-25T10:22:03.438Z,33.70
2019-04-25T10:23:06.244Z,31.80
2019-04-25T10:24:09.252Z,32.00
2019-04-25T10:25:13.273Z,32.00
2019-04-25T10:26:16.036Z,33.40
2019-04-25T10:27:18.756Z,32.30
2019-04-25T10:28:21.481Z,32.30
2019-04-25T10:29:26.315Z,32.10
2019-04-25T10:30:29.016Z,32.00
2019-04-25T10:31:31.741Z,31.90
2019-04-25T10:32:34.463Z,32.10
2019-04-25T10:33:37.199Z,31.70
2019-04-25T10:34:40.322Z,31.90
2019-04-25T10:35:50.675Z,32.00
2019-04-25T10:36:48.944Z,32.40
2019-04-25T10:37:53.342Z,32.30
2019-04-25T10:39:07.217Z,33.70
2019-04-25T10:40:00.483Z,32.90
2019-04-25T10:41:04.265Z,32.80
2019-04-25T10:42:07.820Z,32.70
2019-04-25T10:43:10.537Z,32.60
2019-04-25T10:44:14.168Z,32.40
2019-04-25T10:45:23.223Z,32.70
2019-04-25T10:46:21.651Z,32.10
2019-04-25T10:47:24.399Z,32.30
2019-04-25T10:48:27.084Z,32.70
2019-04-25T10:49:29.800Z,32.40
2019-04-25T10:50:34.090Z,32.40
2019-04-25T10:51:37.015Z,32.50
2019-04-25T10:52:41.567Z,33.00
2019-04-25T10:53:45.997Z,32.80
2019-04-25T10:54:49.681Z,32.90
2019-04-25T10:55:52.384Z,31.60
2019-04-25T10:56:55.103Z,32.60
2019-04-25T10:57:57.819Z,31.90
2019-04-25T10:59:00.531Z,32.40
2019-04-25T11:00:09.451Z,32.50
2019-04-25T11:01:15.072Z,34.10
2019-04-25T11:02:16.164Z,32.00
2019-04-25T11:03:18.877Z,33.30
2019-04-25T11:04:21.596Z,32.40
2019-04-25T11:05:24.365Z,32.60
2019-04-25T11:06:27.117Z,32.40
2019-04-25T11:07:29.837Z,33.90
2019-04-25T11:08:33.999Z,32.80
2019-04-25T11:09:36.988Z,32.70
2019-04-25T11:10:40.535Z,32.70
2019-04-25T11:11:43.352Z,32.70
2019-04-25T11:12:47.168Z,32.90
2019-04-25T11:13:49.955Z,33.00
2019-04-25T11:14:53.309Z,32.80
2019-04-25T11:15:57.174Z,32.50
2019-04-25T11:16:59.963Z,32.70
2019-04-25T11:18:04.090Z,32.50
2019-04-25T11:19:07.039Z,32.60
2019-04-25T11:20:24.160Z,32.70
2019-04-25T11:21:26.915Z,32.70
2019-04-25T11:22:29.631Z,32.80
2019-04-25T11:23:32.352Z,32.80
2019-04-25T11:24:35.071Z,32.50
2019-04-25T11:25:37.788Z,32.60
2019-04-25T11:26:41.463Z,32.60
2019-04-25T11:27:47.038Z,32.90
2019-04-25T11:28:48.795Z,33.90
2019-04-25T11:29:53.246Z,32.70
2019-04-25T11:30:56.818Z,33.00
2019-04-25T11:31:59.800Z,33.00
2019-04-25T11:33:03.647Z,32.90
2019-04-25T11:34:06.864Z,32.50
2019-04-25T11:35:09.576Z,33.50
2019-04-25T11:36:13.351Z,32.80
2019-04-25T11:37:16.115Z,33.10
2019-04-25T11:38:18.835Z,32.90
2019-04-25T11:39:21.556Z,32.40
2019-04-25T11:40:24.283Z,33.10
2019-04-25T11:41:27.031Z,32.40
2019-04-25T11:42:29.757Z,32.90
2019-04-25T11:43:33.725Z,33.60
2019-04-25T11:44:37.107Z,33.00
2019-04-25T11:45:39.804Z,33.10
2019-04-25T11:46:44.482Z,33.20
2019-04-25T11:47:48.370Z,34.40
2019-04-25T11:48:51.192Z,34.40
2019-04-25T11:49:54.637Z,33.40
2019-04-25T11:50:58.363Z,33.40
2019-04-25T11:52:03.085Z,33.40
2019-04-25T11:53:05.724Z,33.50
2019-04-25T11:54:08.446Z,33.60
2019-04-25T11:55:11.160Z,33.60
2019-04-25T11:56:13.877Z,33.50
2019-04-25T11:57:16.647Z,33.70
2019-04-25T11:58:20.019Z,33.10
2019-04-25T11:59:23.515Z,33.30
2019-04-25T12:00:26.420Z,33.70
2019-04-25T12:01:29.204Z,33.10
2019-04-25T12:02:31.955Z,33.00
2019-04-25T12:03:35.012Z,33.30
2019-04-25T12:04:37.861Z,33.50
2019-04-25T12:05:40.605Z,33.50
2019-04-25T12:06:47.040Z,33.70
2019-04-25T12:07:48.011Z,33.60
2019-04-25T12:08:51.490Z,33.60
2019-04-25T12:09:55.579Z,33.70
2019-04-25T12:10:58.495Z,33.60
2019-04-25T12:12:01.356Z,33.90
2019-04-25T12:13:04.323Z,33.90
2019-04-25T12:14:08.124Z,33.80
2019-04-25T12:15:10.847Z,34.00
2019-04-25T12:16:14.423Z,34.30
2019-04-25T12:17:17.597Z,34.30
2019-04-25T12:18:20.308Z,34.40
2019-04-25T12:19:34.290Z,35.60
2019-04-25T12:20:27.484Z,34.40
2019-04-25T12:21:30.203Z,34.50
2019-04-25T12:22:34.321Z,34.50
2019-04-25T12:23:37.071Z,34.60
2019-04-25T12:24:39.791Z,34.60
2019-04-25T12:25:44.272Z,33.70
2019-04-25T12:26:47.725Z,34.10
2019-04-25T12:27:51.403Z,34.10
2019-04-25T12:28:56.422Z,34.00
2019-04-25T12:29:59.446Z,33.90
2019-04-25T12:31:02.327Z,33.80
2019-04-25T12:32:05.044Z,33.80
2019-04-25T12:33:18.318Z,33.90
2019-04-25T12:34:14.033Z,34.10
2019-04-25T12:35:16.631Z,33.80
2019-04-25T12:36:19.351Z,34.00
2019-04-25T12:37:23.252Z,33.80
2019-04-25T12:38:27.099Z,33.90
2019-04-25T12:39:29.825Z,33.80
2019-04-25T12:40:34.224Z,33.80
2019-04-25T12:41:36.882Z,35.10
2019-04-25T12:42:39.636Z,33.90
2019-04-25T12:43:43.891Z,33.90
2019-04-25T12:44:47.838Z,33.90
2019-04-25T12:45:51.249Z,34.90
2019-04-25T12:46:54.578Z,33.70
2019-04-25T12:47:59.369Z,35.00
2019-04-25T12:49:02.420Z,33.60
2019-04-25T12:50:05.143Z,33.70
2019-04-25T12:51:07.863Z,33.90
2019-04-25T12:52:10.575Z,33.50
2019-04-25T12:53:13.940Z,33.70
2019-04-25T12:54:17.138Z,33.50
2019-04-25T12:55:21.970Z,33.10
2019-04-25T12:56:24.790Z,33.80
2019-04-25T12:57:27.916Z,33.90
2019-04-25T12:58:30.659Z,33.60
2019-04-25T12:59:33.944Z,33.60
2019-04-25T13:00:47.497Z,33.40
2019-04-25T13:01:43.311Z,33.40
2019-04-25T13:02:46.210Z,33.50
2019-04-25T13:03:48.924Z,35.00
2019-04-25T13:04:51.640Z,33.40
2019-04-25T13:05:54.360Z,33.50
2019-04-25T13:06:57.867Z,34.60
2019-04-25T13:08:01.081Z,33.40
2019-04-25T13:09:05.506Z,33.40
2019-04-25T13:10:08.201Z,34.90
2019-04-25T13:11:10.920Z,33.30
2019-04-25T13:12:14.973Z,33.40
2019-04-25T13:13:18.007Z,33.30
2019-04-25T13:14:21.068Z,33.10
2019-04-25T13:15:26.640Z,33.20
2019-04-25T13:16:28.195Z,33.10
2019-04-25T13:17:31.221Z,33.20
2019-04-25T13:18:33.974Z,33.20
2019-04-25T13:19:36.686Z,33.20
2019-04-25T13:20:39.400Z,33.20
2019-04-25T13:21:43.287Z,33.10
2019-04-25T13:22:46.136Z,33.40
2019-04-25T13:23:48.889Z,33.30
2019-04-25T13:24:51.605Z,33.30
2019-04-25T13:25:55.807Z,33.20
2019-04-25T13:26:58.663Z,33.40
2019-04-25T13:28:03.374Z,34.40
2019-04-25T13:29:06.729Z,32.90
2019-04-25T13:30:09.475Z,33.20
2019-04-25T13:31:14.684Z,33.00
2019-04-25T13:32:16.550Z,33.10
2019-04-25T13:33:19.303Z,33.30
2019-04-25T13:34:34.126Z,33.30
2019-04-25T13:35:26.479Z,33.40
2019-04-25T13:36:29.206Z,33.20